createdAt,value
2018-12-08T00:01:34.758Z,60.36
2018-12-08T00:04:03.466Z,60.30
2018-12-08T00:06:32.410Z,60.56
2018-12-08T00:09:01.038Z,60.67
2018-12-08T00:11:29.601Z,60.12
2018-12-08T00:13:58.214Z,59.88
2018-12-08T00:16:27.582Z,58.85
2018-12-08T00:18:56.087Z,57.29
2018-12-08T00:21:24.687Z,57.29
2018-12-08T00:23:53.276Z,56.46
2018-12-08T00:26:21.812Z,56.86
2018-12-08T00:28:50.313Z,56.62
2018-12-08T00:31:29.987Z,56.65
2018-12-08T00:33:58.481Z,56.86
2018-12-08T00:36:27.050Z,57.56
2018-12-08T00:38:55.530Z,57.68
2018-12-08T00:41:24.047Z,57.37
2018-12-08T00:43:53.047Z,57.56
2018-12-08T00:46:21.621Z,57.72
2018-12-08T00:48:50.207Z,58.10
2018-12-08T00:51:18.794Z,58.07
2018-12-08T00:53:47.314Z,57.72
2018-12-08T00:56:15.873Z,58.12
2018-12-08T00:58:44.467Z,58.10
2018-12-08T01:01:12.978Z,58.59
2018-12-08T01:03:41.490Z,59.15
2018-12-08T01:06:09.978Z,59.26
2018-12-08T01:08:38.575Z,59.82
2018-12-08T01:11:07.861Z,60.14
2018-12-08T01:13:36.402Z,60.07
2018-12-08T01:16:04.879Z,60.69
2018-12-08T01:18:33.497Z,60.84
2018-12-08T01:21:01.981Z,61.54
2018-12-08T01:23:30.563Z,62.00
2018-12-08T01:25:59.146Z,61.62
2018-12-08T01:28:27.734Z,61.81
2018-12-08T01:30:56.219Z,61.61
2018-12-08T01:33:24.718Z,61.89
2018-12-08T01:35:53.391Z,61.87
2018-12-08T01:38:21.885Z,61.93
2018-12-08T01:40:50.470Z,62.31
2018-12-08T01:43:19.108Z,62.72
2018-12-08T01:45:47.838Z,62.45
2018-12-08T01:48:16.975Z,62.93
2018-12-08T01:50:45.526Z,62.71
2018-12-08T01:53:14.582Z,62.88
2018-12-08T01:55:43.107Z,62.71
2018-12-08T01:58:11.765Z,62.80
2018-12-08T02:00:40.310Z,62.41
2018-12-08T02:03:08.877Z,62.86
2018-12-08T02:05:37.489Z,62.86
2018-12-08T02:08:06.740Z,61.81
2018-12-08T02:10:36.370Z,62.18
2018-12-08T02:13:04.931Z,62.26
2018-12-08T02:15:33.470Z,62.13
2018-12-08T02:18:02.100Z,61.32
2018-12-08T02:20:30.594Z,61.81
2018-12-08T02:22:59.241Z,61.82
2018-12-08T02:25:27.767Z,61.48
2018-12-08T02:27:56.343Z,61.34
2018-12-08T02:30:24.911Z,61.64
2018-12-08T02:32:54.122Z,61.50
2018-12-08T02:35:22.644Z,61.66
2018-12-08T02:37:51.180Z,62.26
2018-12-08T02:40:20.539Z,62.41
2018-12-08T02:42:49.070Z,62.68
2018-12-08T02:45:17.565Z,63.01
2018-12-08T02:47:46.251Z,63.66
2018-12-08T02:50:14.928Z,64.03
2018-12-08T02:52:44.196Z,64.48
2018-12-08T02:55:12.876Z,64.58
2018-12-08T02:57:41.385Z,64.77
2018-12-08T03:00:10.428Z,65.17
2018-12-08T03:02:39.891Z,65.48
2018-12-08T03:05:08.471Z,65.50
2018-12-08T03:07:37.007Z,65.39
2018-12-08T03:10:06.355Z,65.72
2018-12-08T03:12:35.624Z,65.47
2018-12-08T03:15:04.498Z,65.15
2018-12-08T03:17:33.007Z,65.37
2018-12-08T03:20:01.505Z,65.11
2018-12-08T03:22:30.276Z,64.76
2018-12-08T03:24:58.894Z,65.00
2018-12-08T03:27:27.400Z,65.27
2018-12-08T03:29:55.968Z,64.66
2018-12-08T03:32:24.631Z,65.20
2018-12-08T03:34:53.243Z,64.86
2018-12-08T03:37:21.875Z,65.09
2018-12-08T03:39:50.374Z,64.91
2018-12-08T03:42:18.883Z,64.62
2018-12-08T03:44:47.485Z,64.39
2018-12-08T03:47:16.060Z,64.79
2018-12-08T03:49:44.565Z,63.70
2018-12-08T03:52:13.143Z,64.06
2018-12-08T03:54:41.637Z,63.81
2018-12-08T03:57:10.227Z,63.50
2018-12-08T03:59:38.810Z,63.29
2018-12-08T04:02:07.389Z,63.61
2018-12-08T04:04:36.003Z,63.28
2018-12-08T04:07:04.590Z,62.89
2018-12-08T04:09:33.159Z,63.13
2018-12-08T04:12:02.159Z,63.00
2018-12-08T04:14:30.696Z,62.55
2018-12-08T04:16:59.777Z,62.42
2018-12-08T04:19:28.351Z,61.94
2018-12-08T04:21:56.824Z,62.30
2018-12-08T04:24:25.319Z,62.50
2018-12-08T04:26:53.871Z,62.26
2018-12-08T04:29:22.426Z,62.35
2018-12-08T04:31:50.928Z,62.19
2018-12-08T04:34:19.420Z,62.12
2018-12-08T04:36:47.930Z,62.16
2018-12-08T04:39:16.446Z,62.75
2018-12-08T04:41:44.994Z,63.10
2018-12-08T04:44:14.130Z,63.75
2018-12-08T04:46:43.492Z,64.07
2018-12-08T04:49:12.742Z,64.51
2018-12-08T04:51:41.410Z,64.21
2018-12-08T04:54:09.976Z,64.04
2018-12-08T04:56:38.478Z,64.28
2018-12-08T04:59:06.966Z,64.16
2018-12-08T05:01:35.790Z,63.46
2018-12-08T05:04:04.314Z,63.40
2018-12-08T05:06:32.809Z,63.51
2018-12-08T05:09:01.297Z,63.36
2018-12-08T05:11:29.762Z,63.52
2018-12-08T05:13:58.242Z,63.44
2018-12-08T05:16:26.810Z,64.42
2018-12-08T05:18:55.414Z,64.70
2018-12-08T05:21:24.898Z,65.00
2018-12-08T05:23:53.540Z,65.43
2018-12-08T05:26:22.600Z,65.83
2018-12-08T05:28:51.134Z,66.46
2018-12-08T05:31:19.644Z,66.49
2018-12-08T05:33:48.259Z,66.76
2018-12-08T05:36:16.748Z,66.92
2018-12-08T05:38:45.241Z,67.54
2018-12-08T05:41:13.806Z,67.93
2018-12-08T05:43:42.405Z,68.23
2018-12-08T05:46:10.960Z,68.80
2018-12-08T05:48:39.575Z,69.26
2018-12-08T05:51:08.054Z,69.72
2018-12-08T05:53:36.661Z,69.65
2018-12-08T05:56:05.235Z,69.21
2018-12-08T05:58:33.822Z,69.45
2018-12-08T06:01:02.406Z,69.54
2018-12-08T06:03:30.887Z,69.15
2018-12-08T06:05:59.363Z,69.00
2018-12-08T06:08:27.881Z,68.56
2018-12-08T06:10:56.443Z,68.55
2018-12-08T06:13:24.922Z,68.87
2018-12-08T06:15:53.451Z,68.56
2018-12-08T06:18:22.074Z,68.41
2018-12-08T06:20:50.615Z,68.48
2018-12-08T06:23:19.568Z,68.73
2018-12-08T06:25:49.959Z,68.35
2018-12-08T06:28:25.814Z,68.52
2018-12-08T06:30:55.221Z,68.75
2018-12-08T06:33:24.447Z,68.23
2018-12-08T06:35:52.954Z,68.30
2018-12-08T06:38:21.462Z,68.17
2018-12-08T06:40:49.956Z,67.76
2018-12-08T06:43:18.439Z,67.72
2018-12-08T06:45:47.372Z,67.66
2018-12-08T06:48:16.389Z,67.37
2018-12-08T06:50:45.537Z,67.40
2018-12-08T06:53:14.147Z,66.90
2018-12-08T06:55:42.778Z,67.12
2018-12-08T06:58:11.303Z,66.83
2018-12-08T07:00:39.854Z,66.61
2018-12-08T07:03:08.494Z,66.91
2018-12-08T07:05:37.246Z,66.59
2018-12-08T07:08:05.835Z,66.90
2018-12-08T07:10:35.074Z,66.68
2018-12-08T07:13:03.586Z,66.38
2018-12-08T07:15:32.168Z,66.40
2018-12-08T07:18:00.638Z,66.07
2018-12-08T07:20:29.146Z,65.68
2018-12-08T07:22:57.606Z,65.84
2018-12-08T07:25:28.610Z,65.84
2018-12-08T07:27:59.082Z,65.42
2018-12-08T07:30:29.461Z,65.67
2018-12-08T07:32:59.414Z,64.94
2018-12-08T07:35:29.490Z,64.81
2018-12-08T07:37:59.791Z,64.89
2018-12-08T07:40:28.458Z,64.51
2018-12-08T07:42:56.946Z,64.59
2018-12-08T07:45:25.478Z,64.15
2018-12-08T07:47:54.054Z,64.53
2018-12-08T07:50:22.628Z,64.13
2018-12-08T07:52:51.247Z,64.57
2018-12-08T07:55:19.760Z,64.16
2018-12-08T07:57:48.278Z,64.34
2018-12-08T08:00:17.047Z,64.44
2018-12-08T08:02:45.515Z,63.86
2018-12-08T08:05:14.236Z,63.49
2018-12-08T08:07:42.826Z,63.62
2018-12-08T08:10:11.586Z,62.92
2018-12-08T08:12:40.067Z,62.43
2018-12-08T08:15:10.396Z,62.51
2018-12-08T08:17:39.482Z,62.26
2018-12-08T08:20:10.707Z,61.88
2018-12-08T08:22:39.530Z,61.65
2018-12-08T08:25:10.443Z,61.73
2018-12-08T08:27:39.035Z,61.64
2018-12-08T08:30:10.446Z,61.39
2018-12-08T08:32:39.587Z,61.63
2018-12-08T08:35:08.731Z,61.24
2018-12-08T08:37:37.256Z,60.78
2018-12-08T08:40:08.122Z,60.28
2018-12-08T08:42:36.625Z,61.00
2018-12-08T08:45:05.911Z,61.31
2018-12-08T08:47:34.442Z,60.67
2018-12-08T08:50:02.962Z,60.20
2018-12-08T08:52:31.987Z,60.01
2018-12-08T08:55:00.452Z,59.76
2018-12-08T08:57:28.958Z,60.50
2018-12-08T08:59:57.475Z,59.67
2018-12-08T09:02:26.077Z,59.90
2018-12-08T09:04:54.546Z,59.60
2018-12-08T09:07:23.043Z,58.92
2018-12-08T09:09:51.568Z,58.92
2018-12-08T09:12:20.097Z,58.58
2018-12-08T09:14:48.579Z,58.44
2018-12-08T09:17:17.100Z,58.40
2018-12-08T09:19:45.571Z,58.16
2018-12-08T09:22:14.165Z,58.21
2018-12-08T09:24:42.689Z,57.80
2018-12-08T09:27:11.200Z,57.60
2018-12-08T09:29:39.760Z,58.01
2018-12-08T09:32:08.283Z,58.70
2018-12-08T09:34:36.846Z,58.27
2018-12-08T09:37:05.478Z,58.14
2018-12-08T09:39:33.999Z,57.96
2018-12-08T09:42:02.504Z,58.13
2018-12-08T09:44:30.995Z,57.80
2018-12-08T09:47:00.177Z,58.05
2018-12-08T09:49:29.359Z,57.48
2018-12-08T09:51:57.910Z,58.03
2018-12-08T09:54:26.502Z,57.71
2018-12-08T09:56:56.531Z,58.06
2018-12-08T09:59:25.119Z,57.97
2018-12-08T10:01:53.706Z,58.16
2018-12-08T10:04:22.274Z,57.80
2018-12-08T10:06:50.815Z,58.13
2018-12-08T10:09:19.342Z,57.78
2018-12-08T10:11:47.943Z,57.60
2018-12-08T10:14:16.511Z,57.76
2018-12-08T10:16:45.598Z,57.76
2018-12-08T10:19:14.178Z,57.86
2018-12-08T10:21:42.723Z,58.14
2018-12-08T10:24:11.279Z,58.01
2018-12-08T10:26:39.930Z,58.13
2018-12-08T10:29:08.450Z,58.36
2018-12-08T10:31:36.960Z,58.32
2018-12-08T10:34:05.658Z,58.28
2018-12-08T10:36:34.405Z,58.42
2018-12-08T10:39:03.371Z,57.95
2018-12-08T10:41:31.938Z,58.15
2018-12-08T10:44:00.415Z,57.99
2018-12-08T10:46:29.003Z,58.58
2018-12-08T10:48:57.640Z,59.02
2018-12-08T10:51:26.222Z,58.84
2018-12-08T10:53:54.750Z,58.72
2018-12-08T10:56:23.259Z,59.36
2018-12-08T10:58:51.723Z,58.73
2018-12-08T11:01:24.674Z,59.05
2018-12-08T11:03:53.407Z,59.15
2018-12-08T11:06:22.017Z,59.32
2018-12-08T11:08:50.606Z,59.29
2018-12-08T11:11:19.272Z,59.90
2018-12-08T11:13:47.764Z,60.58
2018-12-08T11:16:16.278Z,60.54
2018-12-08T11:18:44.756Z,60.92
2018-12-08T11:21:13.250Z,61.58
2018-12-08T11:23:41.746Z,61.31
2018-12-08T11:26:11.203Z,61.59
2018-12-08T11:28:39.795Z,61.80
2018-12-08T11:31:08.361Z,61.61
2018-12-08T11:33:37.380Z,62.23
2018-12-08T11:36:06.722Z,62.81
2018-12-08T11:38:35.305Z,62.94
2018-12-08T11:41:04.026Z,65.21
2018-12-08T11:43:33.141Z,65.30
2018-12-08T11:46:01.684Z,65.94
2018-12-08T11:48:31.160Z,66.43
2018-12-08T11:50:59.694Z,65.83
2018-12-08T11:53:28.184Z,66.05
2018-12-08T11:55:56.719Z,66.64
2018-12-08T11:58:25.185Z,66.33
2018-12-08T12:00:53.719Z,66.72
2018-12-08T12:03:22.294Z,66.74
2018-12-08T12:05:51.246Z,66.20
2018-12-08T12:08:19.729Z,66.61
2018-12-08T12:10:48.518Z,64.98
2018-12-08T12:13:17.240Z,63.91
2018-12-08T12:15:45.771Z,63.91
2018-12-08T12:18:14.352Z,65.10
2018-12-08T12:20:42.856Z,64.52
2018-12-08T12:23:12.034Z,64.78
2018-12-08T12:25:40.791Z,63.91
2018-12-08T12:28:11.133Z,63.85
2018-12-08T12:30:39.887Z,64.00
2018-12-08T12:33:08.440Z,63.96
2018-12-08T12:35:37.046Z,64.57
2018-12-08T12:38:05.617Z,64.65
2018-12-08T12:40:34.221Z,63.77
2018-12-08T12:43:02.723Z,62.72
2018-12-08T12:45:31.291Z,62.79
2018-12-08T12:48:00.388Z,62.33
2018-12-08T12:50:28.988Z,63.11
2018-12-08T12:52:57.577Z,64.08
2018-12-08T12:55:26.090Z,65.11
2018-12-08T12:57:54.658Z,65.54
2018-12-08T13:00:23.326Z,66.59
2018-12-08T13:02:51.997Z,66.93
2018-12-08T13:05:20.745Z,67.38
2018-12-08T13:07:49.279Z,67.32
2018-12-08T13:10:17.792Z,67.23
2018-12-08T13:12:46.330Z,67.60
2018-12-08T13:15:15.823Z,67.45
2018-12-08T13:17:44.344Z,67.85
2018-12-08T13:20:12.864Z,67.38
2018-12-08T13:22:42.150Z,66.59
2018-12-08T13:25:23.187Z,67.90
2018-12-08T13:27:51.685Z,68.61
2018-12-08T13:30:20.518Z,68.45
2018-12-08T13:32:49.116Z,68.16
2018-12-08T13:35:56.328Z,67.49
2018-12-08T13:38:24.806Z,68.05
2018-12-08T13:40:53.375Z,67.45
2018-12-08T13:43:21.850Z,67.93
2018-12-08T13:45:50.435Z,67.79
2018-12-08T13:48:21.194Z,68.00
2018-12-08T13:50:50.327Z,67.49
2018-12-08T13:53:18.899Z,67.21
2018-12-08T13:55:47.531Z,67.52
2018-12-08T13:58:16.153Z,67.05
2018-12-08T14:00:45.402Z,67.98
2018-12-08T14:03:13.902Z,67.71
2018-12-08T14:05:42.557Z,68.15
2018-12-08T14:08:11.050Z,68.34
2018-12-08T14:10:39.650Z,68.38
2018-12-08T14:13:08.292Z,68.58
2018-12-08T14:15:37.479Z,69.02
2018-12-08T14:18:07.205Z,68.44
2018-12-08T14:20:36.276Z,68.22
2018-12-08T14:23:05.542Z,68.22
2018-12-08T14:25:34.106Z,68.60
2018-12-08T14:28:02.603Z,69.37
2018-12-08T14:30:31.152Z,69.62
2018-12-08T14:32:59.639Z,69.91
2018-12-08T14:35:28.277Z,70.51
2018-12-08T14:37:56.771Z,70.70
2018-12-08T14:40:25.454Z,70.07
2018-12-08T14:42:53.995Z,70.20
2018-12-08T14:45:22.498Z,70.41
2018-12-08T14:47:50.987Z,70.42
2018-12-08T14:50:19.523Z,69.88
2018-12-08T14:52:48.009Z,70.57
2018-12-08T14:55:16.558Z,70.05
2018-12-08T14:57:45.270Z,70.08
2018-12-08T15:00:14.163Z,70.21
2018-12-08T15:02:42.826Z,70.07
2018-12-08T15:05:12.155Z,69.85
2018-12-08T15:07:40.798Z,69.88
2018-12-08T15:10:11.570Z,69.64
2018-12-08T15:12:40.066Z,69.45
2018-12-08T15:15:10.293Z,68.92
2018-12-08T15:17:38.884Z,69.49
2018-12-08T15:20:09.430Z,69.33
2018-12-08T15:22:38.169Z,68.94
2018-12-08T15:25:09.400Z,69.20
2018-12-08T15:27:45.589Z,70.80
2018-12-08T15:30:14.548Z,72.00
2018-12-08T15:32:43.031Z,72.11
2018-12-08T15:35:12.032Z,72.30
2018-12-08T15:37:41.015Z,72.40
2018-12-08T15:40:11.256Z,73.15
2018-12-08T15:42:40.189Z,73.17
2018-12-08T15:45:10.851Z,73.01
2018-12-08T15:47:39.415Z,72.79
2018-12-08T15:50:10.027Z,72.61
2018-12-08T15:52:38.647Z,72.85
2018-12-08T15:55:07.354Z,72.77
2018-12-08T15:57:37.259Z,71.98
2018-12-08T16:00:08.616Z,72.11
2018-12-08T16:02:37.122Z,71.63
2018-12-08T16:05:06.491Z,72.13
2018-12-08T16:07:35.070Z,72.02
2018-12-08T16:10:04.018Z,71.32
2018-12-08T16:12:32.518Z,71.85
2018-12-08T16:15:01.052Z,71.15
2018-12-08T16:17:29.592Z,70.85
2018-12-08T16:19:58.126Z,71.52
2018-12-08T16:22:26.705Z,71.27
2018-12-08T16:24:55.268Z,71.23
2018-12-08T16:27:23.918Z,72.34
2018-12-08T16:29:52.406Z,72.86
2018-12-08T16:32:21.518Z,72.85
2018-12-08T16:34:50.710Z,72.03
2018-12-08T16:37:19.365Z,71.73
2018-12-08T16:39:47.961Z,71.82
2018-12-08T16:42:16.539Z,71.46
2018-12-08T16:44:45.306Z,71.45
2018-12-08T16:47:13.847Z,71.01
2018-12-08T16:49:42.446Z,71.24
2018-12-08T16:52:10.960Z,70.29
2018-12-08T16:54:39.514Z,70.88
2018-12-08T16:57:08.043Z,69.90
2018-12-08T16:59:36.598Z,69.97
2018-12-08T17:02:05.141Z,69.76
2018-12-08T17:04:33.663Z,69.76
2018-12-08T17:07:02.298Z,69.81
2018-12-08T17:09:30.796Z,69.78
2018-12-08T17:12:00.154Z,69.93
2018-12-08T17:14:28.678Z,69.01
2018-12-08T17:16:57.327Z,67.93
2018-12-08T17:19:26.445Z,67.47
2018-12-08T17:21:54.948Z,67.95
2018-12-08T17:24:23.462Z,67.68
2018-12-08T17:26:51.965Z,67.67
2018-12-08T17:29:20.487Z,67.98
2018-12-08T17:31:48.949Z,67.42
2018-12-08T17:34:17.538Z,67.68
2018-12-08T17:36:46.133Z,67.95
2018-12-08T17:39:14.712Z,67.34
2018-12-08T17:41:43.282Z,68.18
2018-12-08T17:44:11.779Z,67.46
2018-12-08T17:46:40.276Z,67.71
2018-12-08T17:49:08.816Z,68.34
2018-12-08T17:51:37.495Z,68.33
2018-12-08T17:54:06.173Z,68.11
2018-12-08T17:56:34.668Z,68.34
2018-12-08T17:59:03.208Z,68.12
2018-12-08T18:01:31.754Z,68.30
2018-12-08T18:04:00.285Z,68.54
2018-12-08T18:06:28.795Z,69.83
2018-12-08T18:08:58.202Z,70.26
2018-12-08T18:11:26.726Z,71.46
2018-12-08T18:13:55.865Z,71.67
2018-12-08T18:16:24.458Z,70.97
2018-12-08T18:18:53.095Z,71.36
2018-12-08T18:21:22.320Z,71.43
2018-12-08T18:23:50.891Z,71.15
2018-12-08T18:26:19.449Z,71.71
2018-12-08T18:28:48.060Z,73.18
2018-12-08T18:31:16.593Z,73.64
2018-12-08T18:33:45.254Z,74.23
2018-12-08T18:36:13.834Z,74.88
2018-12-08T18:38:42.432Z,75.62
2018-12-08T18:41:10.958Z,75.14
2018-12-08T18:43:41.643Z,75.39
2018-12-08T18:46:10.287Z,75.93
2018-12-08T18:48:40.146Z,75.10
2018-12-08T18:51:08.674Z,75.01
2018-12-08T18:53:37.285Z,74.90
2018-12-08T18:56:05.877Z,75.33
2018-12-08T18:58:34.438Z,74.52
2018-12-08T19:01:03.002Z,74.33
2018-12-08T19:03:32.618Z,74.34
2018-12-08T19:06:01.307Z,74.48
2018-12-08T19:08:29.859Z,74.23
2018-12-08T19:10:58.935Z,73.75
2018-12-08T19:13:27.532Z,73.76
2018-12-08T19:15:56.111Z,73.56
2018-12-08T19:18:24.767Z,73.29
2018-12-08T19:20:53.275Z,73.45
2018-12-08T19:23:22.501Z,73.23
2018-12-08T19:25:51.072Z,73.04
2018-12-08T19:28:20.194Z,72.76
2018-12-08T19:30:48.762Z,72.22
2018-12-08T19:33:17.343Z,72.99
2018-12-08T19:35:45.907Z,72.15
2018-12-08T19:38:14.517Z,71.91
2018-12-08T19:40:43.020Z,72.22
2018-12-08T19:43:12.344Z,71.80
2018-12-08T19:45:40.911Z,70.91
2018-12-08T19:48:09.612Z,71.17
2018-12-08T19:50:38.214Z,71.03
2018-12-08T19:53:06.879Z,70.78
2018-12-08T19:55:35.455Z,70.41
2018-12-08T19:58:04.011Z,70.94
2018-12-08T20:00:32.510Z,70.22
2018-12-08T20:03:01.098Z,70.98
2018-12-08T20:05:29.739Z,70.25
2018-12-08T20:07:59.082Z,69.43
2018-12-08T20:10:27.755Z,68.94
2018-12-08T20:12:56.288Z,68.83
2018-12-08T20:15:24.930Z,68.65
2018-12-08T20:17:53.487Z,68.06
2018-12-08T20:20:22.594Z,68.38
2018-12-08T20:22:51.244Z,68.00
2018-12-08T20:25:19.969Z,68.17
2018-12-08T20:27:48.555Z,67.86
2018-12-08T20:30:17.109Z,67.83
2018-12-08T20:32:45.979Z,68.34
2018-12-08T20:35:14.563Z,68.38
2018-12-08T20:37:44.693Z,67.89
2018-12-08T20:40:13.343Z,67.91
2018-12-08T20:42:42.068Z,68.36
2018-12-08T20:45:10.546Z,68.67
2018-12-08T20:47:39.123Z,69.42
2018-12-08T20:50:08.525Z,69.39
2018-12-08T20:52:37.106Z,69.64
2018-12-08T20:55:05.729Z,69.51
2018-12-08T20:57:34.998Z,69.46
2018-12-08T21:00:03.714Z,69.64
2018-12-08T21:02:32.294Z,69.13
2018-12-08T21:05:00.797Z,68.77
2018-12-08T21:07:29.690Z,68.22
2018-12-08T21:09:58.199Z,68.19
2018-12-08T21:12:27.522Z,68.35
2018-12-08T21:14:56.867Z,68.48
2018-12-08T21:17:25.423Z,68.62
2018-12-08T21:19:53.938Z,68.06
2018-12-08T21:22:22.484Z,68.46
2018-12-08T21:24:50.987Z,68.40
2018-12-08T21:27:19.523Z,68.62
2018-12-08T21:29:47.995Z,68.97
2018-12-08T21:32:16.562Z,68.59
2018-12-08T21:34:45.123Z,69.10
2018-12-08T21:37:13.832Z,68.54
2018-12-08T21:39:43.178Z,68.73
2018-12-08T21:42:11.678Z,68.82
2018-12-08T21:44:40.464Z,68.88
2018-12-08T21:47:09.678Z,69.16
2018-12-08T21:49:39.701Z,69.37
2018-12-08T21:52:09.373Z,69.41
2018-12-08T21:54:38.376Z,69.62
2018-12-08T21:57:07.067Z,69.41
2018-12-08T21:59:36.067Z,69.36
2018-12-08T22:02:04.859Z,69.52
2018-12-08T22:04:33.781Z,69.50
2018-12-08T22:07:02.401Z,69.14
2018-12-08T22:09:30.954Z,69.21
2018-12-08T22:12:00.659Z,68.62
2018-12-08T22:14:29.263Z,69.11
2018-12-08T22:16:57.810Z,68.29
2018-12-08T22:19:26.433Z,68.54
2018-12-08T22:21:55.046Z,68.55
2018-12-08T22:24:23.988Z,68.51
2018-12-08T22:26:52.507Z,68.63
2018-12-08T22:29:21.085Z,68.28
2018-12-08T22:31:49.625Z,68.78
2018-12-08T22:34:19.712Z,68.67
2018-12-08T22:36:48.483Z,68.14
2018-12-08T22:39:17.455Z,68.96
2018-12-08T22:41:46.754Z,70.33
2018-12-08T22:44:16.002Z,70.71
2018-12-08T22:46:44.546Z,70.89
2018-12-08T22:49:13.240Z,71.20
2018-12-08T22:51:43.116Z,71.91
2018-12-08T22:54:12.387Z,72.41
2018-12-08T22:56:41.735Z,71.75
2018-12-08T22:59:11.028Z,72.06
2018-12-08T23:01:39.848Z,72.39
2018-12-08T23:04:08.364Z,72.10
2018-12-08T23:06:36.886Z,72.56
2018-12-08T23:09:06.448Z,72.34
2018-12-08T23:11:34.974Z,72.14
2018-12-08T23:14:03.943Z,72.27
2018-12-08T23:16:32.566Z,72.37
2018-12-08T23:19:01.030Z,72.94
2018-12-08T23:21:29.687Z,72.38
2018-12-08T23:23:58.170Z,72.25
2018-12-08T23:26:26.710Z,72.94
2018-12-08T23:28:55.230Z,72.90
2018-12-08T23:31:23.765Z,73.14
2018-12-08T23:33:53.398Z,73.09
2018-12-08T23:36:21.983Z,73.95
2018-12-08T23:38:50.546Z,73.42
2018-12-08T23:41:19.046Z,72.97
2018-12-08T23:43:47.650Z,72.62
2018-12-08T23:46:16.238Z,72.50
2018-12-08T23:48:44.792Z,72.32
2018-12-08T23:51:13.290Z,72.20
2018-12-08T23:53:41.878Z,72.03
2018-12-08T23:56:10.478Z,72.55
2018-12-08T23:58:39.074Z,73.55
